createdAt,value
2022-10-01T00:02:30.736Z,100042.03
2022-10-01T00:07:39.845Z,100034.94
2022-10-01T00:12:46.471Z,100030.97
2022-10-01T00:17:49.905Z,100025.97
2022-10-01T00:22:54.829Z,100015.06
2022-10-01T00:27:58.280Z,100013.84
2022-10-01T00:33:01.859Z,100013.22
2022-10-01T00:38:06.654Z,100005.75
2022-10-01T00:43:22.697Z,100000.81
2022-10-01T00:48:26.342Z,99993.34
2022-10-01T00:53:31.239Z,99980.66
2022-10-01T00:58:34.840Z,99975.94
2022-10-01T01:03:38.487Z,99970.31
2022-10-01T01:08:43.804Z,99957.44
2022-10-01T01:13:52.893Z,99955.53
2022-10-01T01:19:02.840Z,99942.59
2022-10-01T01:24:46.043Z,99936.91
2022-10-01T01:29:53.960Z,99937.88
2022-10-01T01:35:02.205Z,99939.75
2022-10-01T01:40:11.018Z,99925.47
2022-10-01T01:45:19.156Z,99915.84
2022-10-01T01:50:25.141Z,99915.59
2022-10-01T01:55:29.886Z,99901.75
2022-10-01T02:00:34.972Z,99895.88
2022-10-01T02:05:43.824Z,99891.09
2022-10-01T02:11:03.802Z,99879.28
2022-10-01T02:16:18.909Z,99881.84
2022-10-01T02:21:24.931Z,99878.53
2022-10-01T02:26:29.073Z,99865.88
2022-10-01T02:31:34.385Z,99867.03
2022-10-01T02:36:41.141Z,99850.63
2022-10-01T02:41:47.006Z,99840.84
2022-10-01T02:46:54.855Z,99840.81
2022-10-01T02:52:01.164Z,99832.44
2022-10-01T02:57:21.894Z,99822.88
2022-10-01T03:02:28.016Z,99806.16
2022-10-01T03:07:32.500Z,99800.84
2022-10-01T03:12:36.175Z,99797.50
2022-10-01T03:17:41.002Z,99784.63
2022-10-01T03:22:46.928Z,99769.13
2022-10-01T03:27:50.324Z,99778.84
2022-10-01T03:32:55.124Z,99764.63
2022-10-01T03:37:58.489Z,99773.63
2022-10-01T03:43:01.956Z,99770.03
2022-10-01T03:48:06.811Z,99749.13
2022-10-01T03:53:10.567Z,99739.31
2022-10-01T03:58:13.963Z,99736.47
2022-10-01T04:03:19.330Z,99730.84
2022-10-01T04:08:24.518Z,99733.47
2022-10-01T04:13:29.889Z,99718.50
2022-10-01T04:18:35.051Z,99706.81
2022-10-01T04:23:38.401Z,99712.13
2022-10-01T04:28:41.774Z,99697.13
2022-10-01T04:33:46.559Z,99687.25
2022-10-01T04:38:51.992Z,99684.25
2022-10-01T04:43:55.332Z,99678.53
2022-10-01T04:49:01.009Z,99655.50
2022-10-01T04:54:04.486Z,99656.25
2022-10-01T04:59:07.832Z,99650.06
2022-10-01T05:04:12.843Z,99632.91
2022-10-01T05:09:16.217Z,99622.09
2022-10-01T05:14:21.125Z,99610.44
2022-10-01T05:19:28.879Z,99610.25
2022-10-01T05:24:32.189Z,99592.06
2022-10-01T05:29:35.547Z,99599.84
2022-10-01T05:34:40.521Z,99605.28
2022-10-01T05:40:02.963Z,99611.84
2022-10-01T05:45:07.219Z,99608.75
2022-10-01T05:50:12.125Z,99610.16
2022-10-01T05:55:15.722Z,99614.72
2022-10-01T06:00:20.479Z,99607.91
2022-10-01T06:05:25.923Z,99594.38
2022-10-01T06:10:30.294Z,99587.00
2022-10-01T06:15:37.368Z,99575.50
2022-10-01T06:20:42.251Z,99573.47
2022-10-01T06:25:45.654Z,99562.81
2022-10-01T06:30:49.681Z,99552.50
2022-10-01T06:35:54.513Z,99542.97
2022-10-01T06:40:58.998Z,99540.09
2022-10-01T06:46:03.566Z,99543.56
2022-10-01T06:51:08.620Z,99523.53
2022-10-01T06:56:12.026Z,99527.91
2022-10-01T07:01:19.676Z,99517.91
2022-10-01T07:06:25.336Z,99505.78
2022-10-01T07:11:28.719Z,99499.03
2022-10-01T07:16:32.170Z,99483.97
2022-10-01T07:21:37.368Z,99485.34
2022-10-01T07:26:40.895Z,99493.94
2022-10-01T07:31:44.377Z,99484.47
2022-10-01T07:36:50.045Z,99476.19
2022-10-01T07:41:53.643Z,99486.91
2022-10-01T07:46:57.191Z,99491.75
2022-10-01T07:52:02.555Z,99487.31
2022-10-01T07:57:05.956Z,99486.47
2022-10-01T08:02:13.916Z,99485.78
2022-10-01T08:07:18.752Z,99480.78
2022-10-01T08:12:22.132Z,99488.31
2022-10-01T08:17:29.382Z,99484.72
2022-10-01T08:22:37.542Z,99492.69
2022-10-01T08:27:43.307Z,99497.50
2022-10-01T08:32:46.786Z,99493.69
2022-10-01T08:37:51.797Z,99488.41
2022-10-01T08:42:59.262Z,99488.13
2022-10-01T08:48:06.499Z,99496.47
2022-10-01T08:53:16.459Z,99497.19
2022-10-01T08:58:24.452Z,99496.81
2022-10-01T09:03:30.170Z,99501.81
2022-10-01T09:08:45.950Z,99492.50
2022-10-01T09:14:11.727Z,99508.16
2022-10-01T09:19:25.676Z,99510.97
2022-10-01T09:24:43.907Z,99508.31
2022-10-01T09:29:50.260Z,99520.97
2022-10-01T09:34:54.708Z,99517.97
2022-10-01T09:40:12.661Z,99512.28
2022-10-01T09:45:16.955Z,99507.50
2022-10-01T09:50:23.406Z,99498.09
2022-10-01T09:55:32.379Z,99495.56
2022-10-01T10:00:38.210Z,99499.88
2022-10-01T10:05:43.701Z,99508.75
2022-10-01T10:10:53.046Z,99505.34
2022-10-01T10:15:58.375Z,99501.66
2022-10-01T10:21:04.042Z,99513.19
2022-10-01T10:26:16.438Z,99523.16
2022-10-01T10:31:22.192Z,99515.97
2022-10-01T10:36:29.616Z,99527.31
2022-10-01T10:41:35.589Z,99535.56
2022-10-01T10:46:44.017Z,99544.38
2022-10-01T10:51:53.844Z,99551.63
2022-10-01T10:57:02.132Z,99553.22
2022-10-01T11:02:07.302Z,99552.19
2022-10-01T11:07:13.369Z,99552.88
2022-10-01T11:12:27.721Z,99558.41
2022-10-01T11:17:55.175Z,99568.09
2022-10-01T11:23:27.566Z,99565.22
2022-10-01T11:28:47.050Z,99552.63
2022-10-01T11:33:59.333Z,99557.16
2022-10-01T11:39:05.748Z,99560.03
2022-10-01T11:44:17.132Z,99566.84
2022-10-01T11:49:33.948Z,99564.56
2022-10-01T11:54:41.483Z,99566.22
2022-10-01T11:59:50.953Z,99564.41
2022-10-01T12:04:58.979Z,99553.50
2022-10-01T12:10:08.606Z,99557.13
2022-10-01T12:15:18.453Z,99549.88
2022-10-01T12:20:24.578Z,99554.69
2022-10-01T12:25:33.487Z,99561.25
2022-10-01T12:30:44.121Z,99559.34
2022-10-01T12:35:56.502Z,99562.56
2022-10-01T12:41:04.636Z,99558.59
2022-10-01T12:46:15.154Z,99550.75
2022-10-01T12:51:34.590Z,99564.88
2022-10-01T12:56:39.346Z,99559.44
2022-10-01T13:01:56.212Z,99561.72
2022-10-01T13:07:16.114Z,99564.16
2022-10-01T13:12:37.371Z,99566.47
2022-10-01T13:17:46.170Z,99568.13
2022-10-01T13:22:52.943Z,99564.41
2022-10-01T13:28:00.685Z,99564.41
2022-10-01T13:33:20.493Z,99585.53
2022-10-01T13:38:32.214Z,99568.91
2022-10-01T13:43:36.494Z,99578.88
2022-10-01T13:48:46.590Z,99575.16
2022-10-01T13:53:53.349Z,99584.72
2022-10-01T13:58:56.924Z,99584.50
2022-10-01T14:04:08.192Z,99581.25
2022-10-01T14:09:15.194Z,99686.00
2022-10-01T14:14:39.803Z,99730.16
2022-10-01T14:19:49.620Z,99728.19
2022-10-01T14:25:10.678Z,99727.09
2022-10-01T14:30:16.770Z,99734.34
2022-10-01T14:35:29.806Z,99736.34
2022-10-01T14:40:38.228Z,99744.34
2022-10-01T14:45:52.892Z,99742.31
2022-10-01T14:50:59.496Z,99746.03
2022-10-01T14:56:06.469Z,99734.41
2022-10-01T15:01:18.634Z,99740.81
2022-10-01T15:06:24.502Z,99741.13
2022-10-01T15:11:29.563Z,99749.78
2022-10-01T15:16:34.058Z,99735.03
2022-10-01T15:21:41.351Z,99738.31
2022-10-01T15:26:47.415Z,99742.97
2022-10-01T15:31:53.151Z,99743.66
2022-10-01T15:36:59.856Z,99758.25
2022-10-01T15:42:08.674Z,99763.22
2022-10-01T15:47:26.291Z,99763.56
2022-10-01T15:52:49.396Z,99777.47
2022-10-01T15:57:56.566Z,99792.88
2022-10-01T16:03:00.382Z,99815.81
2022-10-01T16:08:05.533Z,99824.59
2022-10-01T16:13:30.325Z,99827.47
2022-10-01T16:18:34.833Z,99846.31
2022-10-01T16:23:43.940Z,99847.19
2022-10-01T16:28:47.570Z,99867.63
2022-10-01T16:33:51.066Z,99868.72
2022-10-01T16:38:57.343Z,99889.09
2022-10-01T16:44:02.917Z,99887.69
2022-10-01T16:49:11.019Z,99902.38
2022-10-01T16:54:23.915Z,99927.13
2022-10-01T16:59:27.331Z,99922.78
2022-10-01T17:04:34.109Z,99937.50
2022-10-01T17:09:39.083Z,99949.75
2022-10-01T17:14:42.657Z,99953.53
2022-10-01T17:19:46.193Z,99962.38
2022-10-01T17:24:51.146Z,99971.25
2022-10-01T17:29:54.619Z,99989.41
2022-10-01T17:34:58.872Z,99985.13
2022-10-01T17:40:04.393Z,99993.81
2022-10-01T17:45:10.480Z,100009.00
2022-10-01T17:50:14.386Z,100001.31
2022-10-01T17:55:20.652Z,100023.84
2022-10-01T18:00:24.103Z,100034.56
2022-10-01T18:05:28.043Z,100048.81
2022-10-01T18:10:34.824Z,100060.72
2022-10-01T18:15:39.534Z,100084.78
2022-10-01T18:27:00.388Z,100100.78
2022-10-01T18:32:13.882Z,100117.09
2022-10-01T18:37:26.228Z,100108.31
2022-10-01T18:43:02.497Z,100127.97
2022-10-01T18:48:35.514Z,100120.78
2022-10-01T18:54:01.099Z,100133.84
2022-10-01T18:59:22.692Z,100149.28
2022-10-01T19:04:54.128Z,100146.59
2022-10-01T19:10:04.622Z,100163.38
2022-10-01T19:15:18.236Z,100182.44
2022-10-01T19:20:32.001Z,100181.34
2022-10-01T19:25:38.513Z,100187.63
2022-10-01T19:30:51.014Z,100197.69
2022-10-01T19:35:59.201Z,100208.19
2022-10-01T19:41:09.026Z,100214.75
2022-10-01T19:46:18.813Z,100207.41
2022-10-01T19:51:28.694Z,100222.91
2022-10-01T19:56:34.033Z,100218.72
2022-10-01T20:01:39.768Z,100231.34
2022-10-01T20:06:47.501Z,100235.94
2022-10-01T20:11:56.243Z,100242.44
2022-10-01T20:17:00.113Z,100251.34
2022-10-01T20:22:09.627Z,100259.06
2022-10-01T20:27:22.517Z,100273.00
2022-10-01T20:32:29.749Z,100289.50
2022-10-01T20:37:45.255Z,100293.22
2022-10-01T20:42:51.287Z,100294.28
2022-10-01T20:48:00.134Z,100297.81
2022-10-01T20:53:17.595Z,100315.94
2022-10-01T20:58:24.512Z,100323.56
2022-10-01T21:03:31.813Z,100326.38
2022-10-01T21:08:42.113Z,100328.38
2022-10-01T21:13:51.346Z,100336.13
2022-10-01T21:19:01.613Z,100344.16
2022-10-01T21:24:17.965Z,100347.56
2022-10-01T21:29:48.277Z,100363.81
2022-10-01T21:35:00.215Z,100365.53
2022-10-01T21:40:12.389Z,100363.72
2022-10-01T21:45:24.453Z,100371.28
2022-10-01T21:50:37.137Z,100368.25
2022-10-01T21:55:53.167Z,100380.91
2022-10-01T22:01:00.820Z,100381.09
2022-10-01T22:06:11.799Z,100376.63
2022-10-01T22:11:18.824Z,100379.88
2022-10-01T22:16:23.183Z,100395.72
2022-10-01T22:21:30.904Z,100399.28
2022-10-01T22:26:39.216Z,100404.41
2022-10-01T22:31:44.867Z,100404.00
2022-10-01T22:36:51.626Z,100411.72
2022-10-01T22:42:00.973Z,100416.47
2022-10-01T22:47:23.288Z,100419.03
2022-10-01T22:52:31.576Z,100430.22
2022-10-01T22:57:51.412Z,100427.84
2022-10-01T23:03:06.075Z,100433.13
2022-10-01T23:08:16.881Z,100430.31
2022-10-01T23:13:29.833Z,100443.41
2022-10-01T23:18:43.943Z,100441.09
2022-10-01T23:23:53.182Z,100442.59
2022-10-01T23:29:07.972Z,100441.78
2022-10-01T23:34:30.707Z,100443.66
2022-10-01T23:39:41.711Z,100442.97
2022-10-01T23:44:50.043Z,100449.97
2022-10-01T23:49:55.838Z,100448.34
2022-10-01T23:55:22.155Z,100463.38
